sensor_id;sensor_type;location;lat;lon;timestamp;pressure;altitude;pressure_sealevel;temperature;humidity
60832;BME280;46665;51.558;-0.448;2023-02-12T00:00:38;103264.47;;;6.62;100.00
60832;BME280;46665;51.558;-0.448;2023-02-12T00:03:22;103257.75;;;6.58;100.00
60832;BME280;46665;51.558;-0.448;2023-02-12T00:06:08;103257.19;;;6.63;100.00
60832;BME280;46665;51.558;-0.448;2023-02-12T00:08:54;103258.03;;;6.63;100.00
60832;BME280;46665;51.558;-0.448;2023-02-12T00:11:38;103270.72;;;6.63;100.00
60832;BME280;46665;51.558;-0.448;2023-02-12T00:14:23;103277.44;;;6.67;100.00
60832;BME280;46665;51.558;-0.448;2023-02-12T00:17:07;103266.44;;;6.68;100.00
60832;BME280;46665;51.558;-0.448;2023-02-12T00:19:51;103268.00;;;6.63;100.00
60832;BME280;46665;51.558;-0.448;2023-02-12T00:22:35;103255.78;;;6.67;100.00
60832;BME280;46665;51.558;-0.448;2023-02-12T00:25:19;103266.63;;;6.67;100.00
60832;BME280;46665;51.558;-0.448;2023-02-12T00:28:03;103273.13;;;6.72;100.00
60832;BME280;46665;51.558;-0.448;2023-02-12T00:30:47;103274.34;;;6.70;100.00
60832;BME280;46665;51.558;-0.448;2023-02-12T00:33:31;103265.53;;;6.61;100.00
60832;BME280;46665;51.558;-0.448;2023-02-12T00:36:18;103265.03;;;6.58;100.00
60832;BME280;46665;51.558;-0.448;2023-02-12T00:39:02;103269.88;;;6.62;100.00
60832;BME280;46665;51.558;-0.448;2023-02-12T00:41:47;103261.78;;;6.62;100.00
60832;BME280;46665;51.558;-0.448;2023-02-12T00:44:30;103263.44;;;6.63;100.00
60832;BME280;46665;51.558;-0.448;2023-02-12T00:47:14;103259.06;;;6.62;100.00
60832;BME280;46665;51.558;-0.448;2023-02-12T00:49:59;103259.47;;;6.59;100.00
60832;BME280;46665;51.558;-0.448;2023-02-12T00:52:43;103257.41;;;6.61;100.00
60832;BME280;46665;51.558;-0.448;2023-02-12T00:55:27;103260.72;;;6.63;100.00
60832;BME280;46665;51.558;-0.448;2023-02-12T00:58:11;103253.28;;;6.65;100.00
60832;BME280;46665;51.558;-0.448;2023-02-12T01:00:55;103260.72;;;6.63;100.00
60832;BME280;46665;51.558;-0.448;2023-02-12T01:03:39;103256.28;;;6.56;100.00
60832;BME280;46665;51.558;-0.448;2023-02-12T01:06:23;103254.22;;;6.58;100.00
60832;BME280;46665;51.558;-0.448;2023-02-12T01:09:07;103256.09;;;6.57;100.00
60832;BME280;46665;51.558;-0.448;2023-02-12T01:11:52;103255.72;;;6.60;100.00
60832;BME280;46665;51.558;-0.448;2023-02-12T01:14:36;103263.66;;;6.62;100.00
60832;BME280;46665;51.558;-0.448;2023-02-12T01:17:19;103255.13;;;6.65;100.00
60832;BME280;46665;51.558;-0.448;2023-02-12T01:20:06;103255.97;;;6.65;100.00
60832;BME280;46665;51.558;-0.448;2023-02-12T01:22:51;103257.28;;;6.69;100.00
60832;BME280;46665;51.558;-0.448;2023-02-12T01:25:37;103253.47;;;6.64;100.00
60832;BME280;46665;51.558;-0.448;2023-02-12T01:28:21;103256.19;;;6.64;100.00
60832;BME280;46665;51.558;-0.448;2023-02-12T01:31:14;103253.66;;;6.62;100.00
60832;BME280;46665;51.558;-0.448;2023-02-12T01:33:59;103263.44;;;6.63;100.00
60832;BME280;46665;51.558;-0.448;2023-02-12T01:36:43;103253.94;;;6.53;100.00
60832;BME280;46665;51.558;-0.448;2023-02-12T01:39:27;103256.09;;;6.57;100.00
60832;BME280;46665;51.558;-0.448;2023-02-12T01:42:16;103261.69;;;6.56;100.00
60832;BME280;46665;51.558;-0.448;2023-02-12T01:47:58;103249.66;;;6.58;100.00
60832;BME280;46665;51.558;-0.448;2023-02-12T01:50:45;103255.72;;;6.60;100.00
60832;BME280;46665;51.558;-0.448;2023-02-12T01:53:36;103253.00;;;6.60;100.00
60832;BME280;46665;51.558;-0.448;2023-02-12T01:56:22;103247.59;;;6.60;100.00
60832;BME280;46665;51.558;-0.448;2023-02-12T01:59:07;103253.84;;;6.61;100.00
60832;BME280;46665;51.558;-0.448;2023-02-12T02:01:52;103253.38;;;6.57;100.00
60832;BME280;46665;51.558;-0.448;2023-02-12T02:04:42;103251.25;;;6.53;100.00
60832;BME280;46665;51.558;-0.448;2023-02-12T02:07:28;103247.72;;;6.52;100.00
60832;BME280;46665;51.558;-0.448;2023-02-12T02:10:12;103256.28;;;6.56;100.00
60832;BME280;46665;51.558;-0.448;2023-02-12T02:12:56;103249.19;;;6.55;100.00
60832;BME280;46665;51.558;-0.448;2023-02-12T02:16:14;103254.78;;;6.53;100.00
60832;BME280;46665;51.558;-0.448;2023-02-12T02:19:13;103258.53;;;6.52;100.00
60832;BME280;46665;51.558;-0.448;2023-02-12T02:31:11;103252.34;;;6.58;100.00
60832;BME280;46665;51.558;-0.448;2023-02-12T02:34:29;103258.22;;;6.62;100.00
60832;BME280;46665;51.558;-0.448;2023-02-12T02:40:13;103262.72;;;6.55;100.00
60832;BME280;46665;51.558;-0.448;2023-02-12T02:43:15;103260.59;;;6.50;100.00
60832;BME280;46665;51.558;-0.448;2023-02-12T02:46:07;103259.38;;;6.53;100.00
60832;BME280;46665;51.558;-0.448;2023-02-12T02:49:01;103249.75;;;6.50;100.00
60832;BME280;46665;51.558;-0.448;2023-02-12T02:51:49;103255.56;;;6.47;100.00
60832;BME280;46665;51.558;-0.448;2023-02-12T02:54:39;103249.50;;;6.45;100.00
60832;BME280;46665;51.558;-0.448;2023-02-12T02:57:31;103255.38;;;6.48;100.00
60832;BME280;46665;51.558;-0.448;2023-02-12T03:06:25;103235.50;;;6.56;100.00
60832;BME280;46665;51.558;-0.448;2023-02-12T03:09:16;103238.25;;;6.63;100.00
60832;BME280;46665;51.558;-0.448;2023-02-12T03:12:06;103233.69;;;6.63;100.00
60832;BME280;46665;51.558;-0.448;2023-02-12T03:15:35;103227.25;;;6.64;100.00
60832;BME280;46665;51.558;-0.448;2023-02-12T03:18:22;103225.38;;;6.65;100.00
60832;BME280;46665;51.558;-0.448;2023-02-12T03:21:15;103216.16;;;6.59;100.00
60832;BME280;46665;51.558;-0.448;2023-02-12T03:24:10;103217.00;;;6.60;100.00
60832;BME280;46665;51.558;-0.448;2023-02-12T03:26:59;103228.38;;;6.55;100.00
60832;BME280;46665;51.558;-0.448;2023-02-12T03:29:46;103228.13;;;6.50;100.00
60832;BME280;46665;51.558;-0.448;2023-02-12T03:32:47;103235.00;;;6.53;100.00
60832;BME280;46665;51.558;-0.448;2023-02-12T03:35:46;103234.44;;;6.57;100.00
60832;BME280;46665;51.558;-0.448;2023-02-12T03:38:40;103244.88;;;6.60;100.00
60832;BME280;46665;51.558;-0.448;2023-02-12T03:41:39;103236.78;;;6.60;100.00
60832;BME280;46665;51.558;-0.448;2023-02-12T03:47:46;103224.19;;;6.53;100.00
60832;BME280;46665;51.558;-0.448;2023-02-12T03:51:03;103234.63;;;6.56;100.00
60832;BME280;46665;51.558;-0.448;2023-02-12T03:53:48;103229.03;;;6.57;100.00
60832;BME280;46665;51.558;-0.448;2023-02-12T03:56:46;103234.31;;;6.65;100.00
60832;BME280;46665;51.558;-0.448;2023-02-12T03:59:37;103240.38;;;6.67;100.00
60832;BME280;46665;51.558;-0.448;2023-02-12T04:02:22;103231.25;;;6.68;100.00
60832;BME280;46665;51.558;-0.448;2023-02-12T04:05:07;103234.59;;;6.70;100.00
60832;BME280;46665;51.558;-0.448;2023-02-12T04:07:54;103234.97;;;6.67;100.00
60832;BME280;46665;51.558;-0.448;2023-02-12T04:11:07;103244.13;;;6.66;100.00
60832;BME280;46665;51.558;-0.448;2023-02-12T04:17:21;103243.75;;;6.69;100.00
60832;BME280;46665;51.558;-0.448;2023-02-12T04:20:31;103239.81;;;6.72;100.00
60832;BME280;46665;51.558;-0.448;2023-02-12T04:23:42;103233.38;;;6.73;100.00
60832;BME280;46665;51.558;-0.448;2023-02-12T04:27:36;103231.69;;;6.72;100.00
60832;BME280;46665;51.558;-0.448;2023-02-12T04:30:04;103245.41;;;6.70;100.00
60832;BME280;46665;51.558;-0.448;2023-02-12T04:33:01;103234.97;;;6.67;100.00
60832;BME280;46665;51.558;-0.448;2023-02-12T04:35:54;103235.81;;;6.68;100.00
60832;BME280;46665;51.558;-0.448;2023-02-12T04:41:26;103232.84;;;6.63;100.00
60832;BME280;46665;51.558;-0.448;2023-02-12T04:44:20;103242.91;;;6.69;100.00
60832;BME280;46665;51.558;-0.448;2023-02-12T04:47:05;103236.47;;;6.70;100.00
60832;BME280;46665;51.558;-0.448;2023-02-12T04:49:49;103238.34;;;6.69;100.00
60832;BME280;46665;51.558;-0.448;2023-02-12T04:52:33;103242.91;;;6.69;100.00
60832;BME280;46665;51.558;-0.448;2023-02-12T04:55:17;103240.38;;;6.67;100.00
60832;BME280;46665;51.558;-0.448;2023-02-12T04:58:01;103236.84;;;6.67;100.00
60832;BME280;46665;51.558;-0.448;2023-02-12T05:00:46;103254.09;;;6.66;100.00
60832;BME280;46665;51.558;-0.448;2023-02-12T05:03:30;103239.75;;;6.65;100.00
60832;BME280;46665;51.558;-0.448;2023-02-12T05:06:14;103253.09;;;6.67;100.00
60832;BME280;46665;51.558;-0.448;2023-02-12T05:08:58;103248.25;;;6.62;100.00
60832;BME280;46665;51.558;-0.448;2023-02-12T05:11:42;103247.81;;;6.59;100.00
60832;BME280;46665;51.558;-0.448;2023-02-12T05:14:26;103244.22;;;6.58;100.00
60832;BME280;46665;51.558;-0.448;2023-02-12T05:17:10;103251.13;;;6.61;100.00
60832;BME280;46665;51.558;-0.448;2023-02-12T05:19:54;103247.16;;;6.57;100.00
60832;BME280;46665;51.558;-0.448;2023-02-12T05:22:37;103243.78;;;6.55;100.00
60832;BME280;46665;51.558;-0.448;2023-02-12T05:25:21;103243.53;;;6.49;100.00
60832;BME280;46665;51.558;-0.448;2023-02-12T05:28:05;103238.56;;;6.53;100.00
60832;BME280;46665;51.558;-0.448;2023-02-12T05:30:49;103224.28;;;6.59;100.00
60832;BME280;46665;51.558;-0.448;2023-02-12T05:33:33;103227.91;;;6.66;100.00
60832;BME280;46665;51.558;-0.448;2023-02-12T05:36:20;103222.94;;;6.70;100.00
60832;BME280;46665;51.558;-0.448;2023-02-12T05:39:05;103218.19;;;6.72;100.00
60832;BME280;46665;51.558;-0.448;2023-02-12T05:41:49;103225.06;;;6.75;100.00
60832;BME280;46665;51.558;-0.448;2023-02-12T05:44:33;103231.88;;;6.70;100.00
60832;BME280;46665;51.558;-0.448;2023-02-12T05:47:17;103221.44;;;6.67;100.00
60832;BME280;46665;51.558;-0.448;2023-02-12T05:50:01;103223.16;;;6.68;100.00
60832;BME280;46665;51.558;-0.448;2023-02-12T05:52:45;103227.97;;;6.73;100.00
60832;BME280;46665;51.558;-0.448;2023-02-12T05:55:30;103230.88;;;6.71;100.00
60832;BME280;46665;51.558;-0.448;2023-02-12T05:58:13;103231.44;;;6.67;100.00
60832;BME280;46665;51.558;-0.448;2023-02-12T06:00:57;103234.06;;;6.60;100.00
60832;BME280;46665;51.558;-0.448;2023-02-12T06:03:41;103228.66;;;6.60;100.00
60832;BME280;46665;51.558;-0.448;2023-02-12T06:06:27;103233.88;;;6.62;100.00
60832;BME280;46665;51.558;-0.448;2023-02-12T06:09:12;103222.50;;;6.66;100.00
60832;BME280;46665;51.558;-0.448;2023-02-12T06:11:57;103213.50;;;6.66;100.00
60832;BME280;46665;51.558;-0.448;2023-02-12T06:14:41;103217.09;;;6.66;100.00
60832;BME280;46665;51.558;-0.448;2023-02-12T06:17:25;103213.63;;;6.58;100.00
60832;BME280;46665;51.558;-0.448;2023-02-12T06:20:09;103225.69;;;6.55;100.00
60832;BME280;46665;51.558;-0.448;2023-02-12T06:22:53;103217.84;;;6.60;100.00
60832;BME280;46665;51.558;-0.448;2023-02-12T06:25:37;103219.31;;;6.63;100.00
60832;BME280;46665;51.558;-0.448;2023-02-12T06:28:21;103216.34;;;6.58;100.00
60832;BME280;46665;51.558;-0.448;2023-02-12T06:34:06;103209.84;;;6.52;100.00
60832;BME280;46665;51.558;-0.448;2023-02-12T06:36:50;103217.78;;;6.54;100.00
60832;BME280;46665;51.558;-0.448;2023-02-12T06:39:34;103226.72;;;6.54;100.00
60832;BME280;46665;51.558;-0.448;2023-02-12T06:42:18;103224.84;;;6.55;100.00
60832;BME280;46665;51.558;-0.448;2023-02-12T06:45:03;103218.13;;;6.50;100.00
60832;BME280;46665;51.558;-0.448;2023-02-12T06:47:47;103208.09;;;6.44;100.00
60832;BME280;46665;51.558;-0.448;2023-02-12T06:50:31;103214.91;;;6.40;100.00
60832;BME280;46665;51.558;-0.448;2023-02-12T06:53:16;103211.34;;;6.40;100.00
60832;BME280;46665;51.558;-0.448;2023-02-12T06:56:01;103209.69;;;6.39;100.00
60832;BME280;46665;51.558;-0.448;2023-02-12T06:58:46;103214.91;;;6.40;100.00
60832;BME280;46665;51.558;-0.448;2023-02-12T07:01:31;103209.97;;;6.44;100.00
60832;BME280;46665;51.558;-0.448;2023-02-12T07:04:15;103209.75;;;6.45;100.00
60832;BME280;46665;51.558;-0.448;2023-02-12T07:06:58;103209.56;;;6.47;100.00
60832;BME280;46665;51.558;-0.448;2023-02-12T07:09:43;103213.94;;;6.48;100.00
60832;BME280;46665;51.558;-0.448;2023-02-12T07:12:27;103220.56;;;6.45;100.00
60832;BME280;46665;51.558;-0.448;2023-02-12T07:15:12;103212.00;;;6.42;100.00
60832;BME280;46665;51.558;-0.448;2023-02-12T07:17:56;103220.78;;;6.44;100.00
60832;BME280;46665;51.558;-0.448;2023-02-12T07:20:40;103223.22;;;6.39;100.00
60832;BME280;46665;51.558;-0.448;2023-02-12T07:23:24;103221.72;;;6.36;100.00
60832;BME280;46665;51.558;-0.448;2023-02-12T07:26:11;103218.19;;;6.36;100.00
60832;BME280;46665;51.558;-0.448;2023-02-12T07:28:56;103230.03;;;6.35;100.00
60832;BME280;46665;51.558;-0.448;2023-02-12T07:31:42;103227.31;;;6.35;100.00
60832;BME280;46665;51.558;-0.448;2023-02-12T07:34:26;103232.94;;;6.33;100.00
60832;BME280;46665;51.558;-0.448;2023-02-12T07:37:10;103238.78;;;6.37;100.00
60832;BME280;46665;51.558;-0.448;2023-02-12T07:39:54;103220.50;;;6.39;100.00
60832;BME280;46665;51.558;-0.448;2023-02-12T07:42:38;103230.78;;;6.43;100.00
60832;BME280;46665;51.558;-0.448;2023-02-12T07:45:22;103234.38;;;6.50;100.00
60832;BME280;46665;51.558;-0.448;2023-02-12T07:48:07;103235.00;;;6.53;100.00
60832;BME280;46665;51.558;-0.448;2023-02-12T07:50:51;103231.75;;;6.57;100.00
60832;BME280;46665;51.558;-0.448;2023-02-12T07:53:35;103229.69;;;6.59;100.00
60832;BME280;46665;51.558;-0.448;2023-02-12T07:56:25;103244.22;;;6.58;100.00
60832;BME280;46665;51.558;-0.448;2023-02-12T07:59:15;103236.72;;;6.54;100.00
60832;BME280;46665;51.558;-0.448;2023-02-12T08:02:00;103239.34;;;6.47;100.00
60832;BME280;46665;51.558;-0.448;2023-02-12T08:04:43;103243.53;;;6.49;100.00
60832;BME280;46665;51.558;-0.448;2023-02-12T08:07:28;103239.59;;;6.52;100.00
60832;BME280;46665;51.558;-0.448;2023-02-12T08:10:12;103241.91;;;6.55;100.00
60832;BME280;46665;51.558;-0.448;2023-02-12T08:12:56;103230.44;;;6.53;100.00
60832;BME280;46665;51.558;-0.448;2023-02-12T08:15:40;103245.66;;;6.54;100.00
60832;BME280;46665;51.558;-0.448;2023-02-12T08:18:24;103246.03;;;6.51;100.00
60832;BME280;46665;51.558;-0.448;2023-02-12T08:21:10;103245.41;;;6.49;100.00
60832;BME280;46665;51.558;-0.448;2023-02-12T08:23:57;103240.63;;;6.51;100.00
60832;BME280;46665;51.558;-0.448;2023-02-12T08:26:41;103248.53;;;6.53;100.00
60832;BME280;46665;51.558;-0.448;2023-02-12T08:29:28;103243.59;;;6.56;100.00
60832;BME280;46665;51.558;-0.448;2023-02-12T08:32:12;103239.47;;;6.60;100.00
60832;BME280;46665;51.558;-0.448;2023-02-12T08:34:56;103251.13;;;6.61;100.00
60832;BME280;46665;51.558;-0.448;2023-02-12T08:37:40;103252.81;;;6.62;100.00
60832;BME280;46665;51.558;-0.448;2023-02-12T08:40:25;103242.44;;;6.65;100.00
60832;BME280;46665;51.558;-0.448;2023-02-12T08:43:08;103247.28;;;6.70;100.00
60832;BME280;46665;51.558;-0.448;2023-02-12T08:45:52;103254.00;;;6.74;100.00
60832;BME280;46665;51.558;-0.448;2023-02-12T08:48:39;103258.84;;;6.79;100.00
60832;BME280;46665;51.558;-0.448;2023-02-12T08:51:25;103246.97;;;6.80;100.00
60832;BME280;46665;51.558;-0.448;2023-02-12T08:54:12;103256.19;;;6.85;100.00
60832;BME280;46665;51.558;-0.448;2023-02-12T08:56:59;103248.72;;;6.87;100.00
60832;BME280;46665;51.558;-0.448;2023-02-12T08:59:44;103254.22;;;6.94;100.00
60832;BME280;46665;51.558;-0.448;2023-02-12T09:02:29;103255.09;;;7.01;100.00
60832;BME280;46665;51.558;-0.448;2023-02-12T09:05:13;103263.28;;;7.08;100.00
60832;BME280;46665;51.558;-0.448;2023-02-12T09:07:57;103270.84;;;7.12;100.00
60832;BME280;46665;51.558;-0.448;2023-02-12T09:10:42;103276.34;;;7.19;100.00
60832;BME280;46665;51.558;-0.448;2023-02-12T09:13:26;103268.66;;;7.23;100.00
60832;BME280;46665;51.558;-0.448;2023-02-12T09:16:10;103271.44;;;7.29;100.00
60832;BME280;46665;51.558;-0.448;2023-02-12T09:18:55;103276.84;;;7.29;100.00
60832;BME280;46665;51.558;-0.448;2023-02-12T09:21:40;103269.34;;;7.31;100.00
60832;BME280;46665;51.558;-0.448;2023-02-12T09:24:25;103260.38;;;7.31;100.00
60832;BME280;46665;51.558;-0.448;2023-02-12T09:27:10;103270.88;;;7.41;100.00
60832;BME280;46665;51.558;-0.448;2023-02-12T09:29:54;103262.75;;;7.41;100.00
60832;BME280;46665;51.558;-0.448;2023-02-12T09:32:38;103263.66;;;7.48;100.00
60832;BME280;46665;51.558;-0.448;2023-02-12T09:35:22;103262.84;;;7.54;100.00
60832;BME280;46665;51.558;-0.448;2023-02-12T09:38:07;103262.09;;;7.60;100.00
60832;BME280;46665;51.558;-0.448;2023-02-12T09:44:14;103265.03;;;7.65;100.00
60832;BME280;46665;51.558;-0.448;2023-02-12T09:47:08;103268.81;;;7.71;100.00
60832;BME280;46665;51.558;-0.448;2023-02-12T09:50:10;103264.22;;;7.71;100.00
60832;BME280;46665;51.558;-0.448;2023-02-12T09:52:56;103279.41;;;7.66;100.00
60832;BME280;46665;51.558;-0.448;2023-02-12T09:55:42;103273.34;;;7.64;100.00
60832;BME280;46665;51.558;-0.448;2023-02-12T09:58:34;103278.09;;;7.55;100.00
60832;BME280;46665;51.558;-0.448;2023-02-12T10:01:21;103256.94;;;7.44;100.00
60832;BME280;46665;51.558;-0.448;2023-02-12T10:04:05;103277.78;;;7.43;100.00
60832;BME280;46665;51.558;-0.448;2023-02-12T10:07:03;103269.22;;;7.40;100.00
60832;BME280;46665;51.558;-0.448;2023-02-12T10:13:04;103275.22;;;7.35;100.00
60832;BME280;46665;51.558;-0.448;2023-02-12T10:16:17;103272.50;;;7.35;100.00
60832;BME280;46665;51.558;-0.448;2023-02-12T10:22:40;103265.41;;;7.34;100.00
60832;BME280;46665;51.558;-0.448;2023-02-12T10:25:37;103266.19;;;7.28;100.00
60832;BME280;46665;51.558;-0.448;2023-02-12T10:28:27;103271.78;;;7.26;100.00
60832;BME280;46665;51.558;-0.448;2023-02-12T10:31:20;103265.53;;;7.26;100.00
60832;BME280;46665;51.558;-0.448;2023-02-12T10:34:16;103271.59;;;7.28;100.00
60832;BME280;46665;51.558;-0.448;2023-02-12T10:37:10;103272.91;;;7.32;100.00
60832;BME280;46665;51.558;-0.448;2023-02-12T10:40:05;103275.63;;;7.32;100.00
60832;BME280;46665;51.558;-0.448;2023-02-12T10:42:57;103279.19;;;7.39;100.00
60832;BME280;46665;51.558;-0.448;2023-02-12T10:45:42;103273.34;;;7.35;100.00
60832;BME280;46665;51.558;-0.448;2023-02-12T10:48:31;103278.75;;;7.35;100.00
60832;BME280;46665;51.558;-0.448;2023-02-12T10:54:32;103276.06;;;7.35;100.00
60832;BME280;46665;51.558;-0.448;2023-02-12T10:57:20;103276.44;;;7.32;100.00
60832;BME280;46665;51.558;-0.448;2023-02-12T11:06:10;103278.50;;;7.30;100.00
60832;BME280;46665;51.558;-0.448;2023-02-12T11:08:56;103291.41;;;7.28;100.00
60832;BME280;46665;51.558;-0.448;2023-02-12T11:11:41;103274.50;;;7.26;100.00
60832;BME280;46665;51.558;-0.448;2023-02-12T11:14:25;103285.97;;;7.28;100.00
60832;BME280;46665;51.558;-0.448;2023-02-12T11:17:21;103274.06;;;7.23;100.00
60832;BME280;46665;51.558;-0.448;2023-02-12T11:20:18;103282.84;;;7.25;100.00
60832;BME280;46665;51.558;-0.448;2023-02-12T11:23:04;103274.13;;;7.29;100.00
60832;BME280;46665;51.558;-0.448;2023-02-12T11:29:19;103264.78;;;7.32;100.00
60832;BME280;46665;51.558;-0.448;2023-02-12T11:32:05;103262.19;;;7.24;100.00
60832;BME280;46665;51.558;-0.448;2023-02-12T11:38:19;103254.19;;;7.15;100.00
60832;BME280;46665;51.558;-0.448;2023-02-12T11:41:17;103261.75;;;7.20;100.00
60832;BME280;46665;51.558;-0.448;2023-02-12T11:44:25;103259.78;;;7.14;100.00
60832;BME280;46665;51.558;-0.448;2023-02-12T11:47:17;103247.13;;;7.14;100.00
60832;BME280;46665;51.558;-0.448;2023-02-12T11:50:17;103251.50;;;7.15;100.00
60832;BME280;46665;51.558;-0.448;2023-02-12T11:53:07;103257.94;;;7.14;100.00
60832;BME280;46665;51.558;-0.448;2023-02-12T11:55:54;103249.19;;;7.12;100.00
60832;BME280;46665;51.558;-0.448;2023-02-12T11:58:40;103249.94;;;7.06;100.00
60832;BME280;46665;51.558;-0.448;2023-02-12T12:01:31;103251.41;;;7.09;100.00
60832;BME280;46665;51.558;-0.448;2023-02-12T12:04:19;103252.03;;;7.04;100.00
60832;BME280;46665;51.558;-0.448;2023-02-12T12:07:14;103240.16;;;7.05;100.00
60832;BME280;46665;51.558;-0.448;2023-02-12T12:10:14;103244.16;;;7.09;100.00
60832;BME280;46665;51.558;-0.448;2023-02-12T12:13:04;103241.88;;;7.13;100.00
60832;BME280;46665;51.558;-0.448;2023-02-12T12:16:18;103242.34;;;7.16;100.00
60832;BME280;46665;51.558;-0.448;2023-02-12T12:19:28;103241.31;;;7.18;100.00
60832;BME280;46665;51.558;-0.448;2023-02-12T12:25:52;103231.56;;;7.23;100.00
60832;BME280;46665;51.558;-0.448;2023-02-12T12:28:45;103229.91;;;7.22;100.00
60832;BME280;46665;51.558;-0.448;2023-02-12T12:31:34;103228.66;;;7.25;100.00
60832;BME280;46665;51.558;-0.448;2023-02-12T12:34:24;103220.47;;;7.18;100.00
60832;BME280;46665;51.558;-0.448;2023-02-12T12:37:31;103226.53;;;7.20;100.00
60832;BME280;46665;51.558;-0.448;2023-02-12T12:40:51;103223.44;;;7.23;100.00
60832;BME280;46665;51.558;-0.448;2023-02-12T12:44:17;103223.00;;;7.20;100.00
60832;BME280;46665;51.558;-0.448;2023-02-12T13:08:45;103201.75;;;7.45;100.00
60832;BME280;46665;51.558;-0.448;2023-02-12T13:15:12;103199.81;;;7.38;100.00
60832;BME280;46665;51.558;-0.448;2023-02-12T13:17:42;103190.19;;;7.36;100.00
60832;BME280;46665;51.558;-0.448;2023-02-12T13:23:45;103178.09;;;7.32;100.00
60832;BME280;46665;51.558;-0.448;2023-02-12T13:26:44;103169.34;;;7.36;100.00
60832;BME280;46665;51.558;-0.448;2023-02-12T13:29:34;103179.38;;;7.36;100.00
60832;BME280;46665;51.558;-0.448;2023-02-12T13:32:27;103168.59;;;7.43;100.00
60832;BME280;46665;51.558;-0.448;2023-02-12T13:35:18;103173.59;;;7.46;100.00
60832;BME280;46665;51.558;-0.448;2023-02-12T13:38:05;103164.25;;;7.48;100.00
60832;BME280;46665;51.558;-0.448;2023-02-12T13:40:54;103169.47;;;7.50;100.00
60832;BME280;46665;51.558;-0.448;2023-02-12T13:43:48;103169.91;;;7.53;100.00
60832;BME280;46665;51.558;-0.448;2023-02-12T13:46:53;103171.94;;;7.45;100.00
60832;BME280;46665;51.558;-0.448;2023-02-12T13:49:53;103169.81;;;7.40;100.00
60832;BME280;46665;51.558;-0.448;2023-02-12T13:52:44;103166.47;;;7.38;100.00
60832;BME280;46665;51.558;-0.448;2023-02-12T13:55:40;103161.88;;;7.38;100.00
60832;BME280;46665;51.558;-0.448;2023-02-12T14:01:41;103156.38;;;7.25;100.00
60832;BME280;46665;51.558;-0.448;2023-02-12T14:04:31;103157.44;;;7.31;100.00
60832;BME280;46665;51.558;-0.448;2023-02-12T14:07:17;103151.03;;;7.38;100.00
60832;BME280;46665;51.558;-0.448;2023-02-12T14:10:04;103149.88;;;7.48;100.00
60832;BME280;46665;51.558;-0.448;2023-02-12T14:12:50;103148.56;;;7.44;100.00
60832;BME280;46665;51.558;-0.448;2023-02-12T14:15:37;103151.97;;;7.52;100.00
60832;BME280;46665;51.558;-0.448;2023-02-12T14:18:33;103141.16;;;7.59;100.00
60832;BME280;46665;51.558;-0.448;2023-02-12T14:21:32;103146.75;;;7.51;100.00
60832;BME280;46665;51.558;-0.448;2023-02-12T14:28:26;103131.56;;;7.56;100.00
60832;BME280;46665;51.558;-0.448;2023-02-12T14:30:39;103127.38;;;7.54;100.00
60832;BME280;46665;51.558;-0.448;2023-02-12T14:33:25;103129.50;;;7.58;100.00
60832;BME280;46665;51.558;-0.448;2023-02-12T14:44:56;103118.94;;;7.70;100.00
60832;BME280;46665;51.558;-0.448;2023-02-12T14:50:44;103121.88;;;7.75;100.00
60832;BME280;46665;51.558;-0.448;2023-02-12T14:53:38;103116.63;;;7.74;100.00
60832;BME280;46665;51.558;-0.448;2023-02-12T14:56:23;103119.56;;;7.72;100.00
60832;BME280;46665;51.558;-0.448;2023-02-12T14:59:14;103127.28;;;7.75;100.00
60832;BME280;46665;51.558;-0.448;2023-02-12T15:02:01;103119.59;;;7.79;100.00
60832;BME280;46665;51.558;-0.448;2023-02-12T15:04:49;103116.22;;;7.77;100.00
60832;BME280;46665;51.558;-0.448;2023-02-12T15:07:43;103113.69;;;7.69;100.00
60832;BME280;46665;51.558;-0.448;2023-02-12T15:10:36;103102.66;;;7.70;100.00
60832;BME280;46665;51.558;-0.448;2023-02-12T15:22:02;103100.59;;;7.72;100.00
60832;BME280;46665;51.558;-0.448;2023-02-12T15:24:46;103094.97;;;7.74;100.00
60832;BME280;46665;51.558;-0.448;2023-02-12T15:27:29;103090.38;;;7.74;100.00
60832;BME280;46665;51.558;-0.448;2023-02-12T15:30:18;103087.06;;;7.72;100.00
60832;BME280;46665;51.558;-0.448;2023-02-12T15:33:05;103091.00;;;7.70;100.00
60832;BME280;46665;51.558;-0.448;2023-02-12T15:35:51;103079.94;;;7.71;100.00
60832;BME280;46665;51.558;-0.448;2023-02-12T15:38:37;103077.44;;;7.70;100.00
60832;BME280;46665;51.558;-0.448;2023-02-12T15:41:42;103068.91;;;7.73;100.00
60832;BME280;46665;51.558;-0.448;2023-02-12T15:44:30;103073.50;;;7.72;100.00
60832;BME280;46665;51.558;-0.448;2023-02-12T15:47:15;103079.09;;;7.71;100.00
60832;BME280;46665;51.558;-0.448;2023-02-12T15:50:00;103081.59;;;7.66;100.00
60832;BME280;46665;51.558;-0.448;2023-02-12T15:52:45;103075.13;;;7.67;100.00
60832;BME280;46665;51.558;-0.448;2023-02-12T15:55:35;103082.22;;;7.68;100.00
60832;BME280;46665;51.558;-0.448;2023-02-12T15:58:36;103079.53;;;7.68;100.00
60832;BME280;46665;51.558;-0.448;2023-02-12T16:01:30;103071.94;;;7.56;100.00
60832;BME280;46665;51.558;-0.448;2023-02-12T16:04:14;103067.78;;;7.54;100.00
60832;BME280;46665;51.558;-0.448;2023-02-12T16:07:00;103060.47;;;7.54;100.00
60832;BME280;46665;51.558;-0.448;2023-02-12T16:09:44;103067.13;;;7.52;100.00
60832;BME280;46665;51.558;-0.448;2023-02-12T16:12:32;103069.00;;;7.51;100.00
60832;BME280;46665;51.558;-0.448;2023-02-12T16:15:29;103067.75;;;7.47;100.00
60832;BME280;46665;51.558;-0.448;2023-02-12T16:18:24;103067.75;;;7.47;100.00
60832;BME280;46665;51.558;-0.448;2023-02-12T16:21:17;103071.94;;;7.50;100.00
60832;BME280;46665;51.558;-0.448;2023-02-12T16:24:02;103072.53;;;7.52;100.00
60832;BME280;46665;51.558;-0.448;2023-02-12T16:26:47;103060.66;;;7.46;100.00
60832;BME280;46665;51.558;-0.448;2023-02-12T16:29:33;103054.41;;;7.46;100.00